createdAt,value
2023-05-09T00:00:56.783Z,36.02
2023-05-09T00:02:00.545Z,36.05
2023-05-09T00:03:04.281Z,36.13
2023-05-09T00:04:08.148Z,36.15
2023-05-09T00:05:11.881Z,36.18
2023-05-09T00:06:15.932Z,36.20
2023-05-09T00:07:19.621Z,36.28
2023-05-09T00:08:23.306Z,36.33
2023-05-09T00:09:27.073Z,36.30
2023-05-09T00:10:30.850Z,36.35
2023-05-09T00:11:36.370Z,36.39
2023-05-09T00:12:40.117Z,36.44
2023-05-09T00:13:43.763Z,36.41
2023-05-09T00:14:47.423Z,36.50
2023-05-09T00:15:51.224Z,36.49
2023-05-09T00:16:55.111Z,36.52
2023-05-09T00:17:58.930Z,36.55
2023-05-09T00:19:02.558Z,36.58
2023-05-09T00:20:08.038Z,36.60
2023-05-09T00:21:11.936Z,36.63
2023-05-09T00:22:15.689Z,36.66
2023-05-09T00:23:19.461Z,36.63
2023-05-09T00:24:23.125Z,36.63
2023-05-09T00:25:27.066Z,36.62
2023-05-09T00:26:30.741Z,36.65
2023-05-09T00:27:36.336Z,36.67
2023-05-09T00:28:40.006Z,36.69
2023-05-09T00:29:43.777Z,36.66
2023-05-09T00:30:47.465Z,36.72
2023-05-09T00:31:51.246Z,36.72
2023-05-09T00:32:55.255Z,36.62
2023-05-09T00:33:59.019Z,36.66
2023-05-09T00:35:02.873Z,36.59
2023-05-09T00:36:07.035Z,36.68
2023-05-09T00:37:10.631Z,36.71
2023-05-09T00:38:14.287Z,36.72
2023-05-09T00:39:17.927Z,36.60
2023-05-09T00:40:21.722Z,36.60
2023-05-09T00:41:25.389Z,36.65
2023-05-09T00:42:29.215Z,36.68
2023-05-09T00:43:34.606Z,36.72
2023-05-09T00:44:38.515Z,36.73
2023-05-09T00:45:42.705Z,36.84
2023-05-09T00:46:46.479Z,36.81
2023-05-09T00:47:50.289Z,36.81
2023-05-09T00:48:54.138Z,36.86
2023-05-09T00:49:59.049Z,36.90
2023-05-09T00:51:02.708Z,36.94
2023-05-09T00:52:06.783Z,36.96
2023-05-09T00:53:11.012Z,36.96
2023-05-09T00:54:15.144Z,36.94
2023-05-09T00:55:19.635Z,36.85
2023-05-09T00:56:23.377Z,36.95
2023-05-09T00:57:27.061Z,37.03
2023-05-09T00:58:31.332Z,37.05
2023-05-09T00:59:36.909Z,36.99
2023-05-09T01:00:40.687Z,36.97
2023-05-09T01:01:44.417Z,36.97
2023-05-09T01:02:51.700Z,36.96
2023-05-09T01:03:55.883Z,36.87
2023-05-09T01:04:59.910Z,36.95
2023-05-09T01:06:08.024Z,37.00
2023-05-09T01:07:19.880Z,37.05
2023-05-09T01:08:35.258Z,37.08
2023-05-09T01:09:46.762Z,37.07
2023-05-09T01:10:58.476Z,37.04
2023-05-09T01:12:14.625Z,37.04
2023-05-09T01:13:31.009Z,37.06
2023-05-09T01:14:42.768Z,37.07
2023-05-09T01:16:02.154Z,37.09
2023-05-09T01:17:12.231Z,37.08
2023-05-09T01:18:22.281Z,37.10
2023-05-09T01:19:57.872Z,37.11
2023-05-09T01:21:07.300Z,37.09
2023-05-09T01:22:15.331Z,37.06
2023-05-09T01:24:06.111Z,37.04
2023-05-09T01:25:33.946Z,37.07
2023-05-09T01:26:45.254Z,37.09
2023-05-09T01:27:58.452Z,37.10
2023-05-09T01:29:43.204Z,37.16
2023-05-09T01:30:49.975Z,37.16
2023-05-09T01:31:56.587Z,37.13
2023-05-09T01:33:03.068Z,37.15
2023-05-09T01:34:08.035Z,37.20
2023-05-09T01:35:14.471Z,37.23
2023-05-09T01:36:20.472Z,37.23
2023-05-09T01:37:30.038Z,37.24
2023-05-09T01:38:35.472Z,37.14
2023-05-09T01:39:41.596Z,37.28
2023-05-09T01:40:48.597Z,37.31
2023-05-09T01:41:54.663Z,37.34
2023-05-09T01:43:02.129Z,37.35
2023-05-09T01:44:09.059Z,37.36
2023-05-09T01:45:16.445Z,37.30
2023-05-09T01:46:22.742Z,37.41
2023-05-09T01:47:27.051Z,37.45
2023-05-09T01:48:32.154Z,37.46
2023-05-09T01:49:38.622Z,37.48
2023-05-09T01:50:44.256Z,37.50
2023-05-09T01:51:49.259Z,37.50
2023-05-09T01:52:57.209Z,37.49
2023-05-09T01:54:02.759Z,37.51
2023-05-09T01:55:08.018Z,37.45
2023-05-09T01:56:12.945Z,37.54
2023-05-09T01:57:18.192Z,37.54
2023-05-09T01:58:23.316Z,37.46
2023-05-09T01:59:28.243Z,37.45
2023-05-09T02:00:34.204Z,37.48
2023-05-09T02:01:38.231Z,37.49
2023-05-09T02:02:42.533Z,37.46
2023-05-09T02:03:48.270Z,37.50
2023-05-09T02:04:52.521Z,37.50
2023-05-09T02:05:57.714Z,37.49
2023-05-09T02:07:03.492Z,37.48
2023-05-09T02:08:07.861Z,37.51
2023-05-09T02:09:12.093Z,37.54
2023-05-09T02:10:17.335Z,37.43
2023-05-09T02:11:21.143Z,37.39
2023-05-09T02:12:25.270Z,37.51
2023-05-09T02:13:29.080Z,37.54
2023-05-09T02:14:33.101Z,37.59
2023-05-09T02:15:38.974Z,37.59
2023-05-09T02:16:43.050Z,37.59
2023-05-09T02:17:46.858Z,37.59
2023-05-09T02:18:50.512Z,37.54
2023-05-09T02:19:54.107Z,37.55
2023-05-09T02:20:57.778Z,37.55
2023-05-09T02:22:01.800Z,37.59
2023-05-09T02:23:05.930Z,37.62
2023-05-09T02:24:09.885Z,37.65
2023-05-09T02:25:14.236Z,37.72
2023-05-09T02:26:18.486Z,37.70
2023-05-09T02:27:22.872Z,37.73
2023-05-09T02:28:28.169Z,37.67
2023-05-09T02:29:35.346Z,37.81
2023-05-09T02:30:43.776Z,37.82
2023-05-09T02:31:49.429Z,37.72
2023-05-09T02:32:57.484Z,37.75
2023-05-09T02:34:03.123Z,37.85
2023-05-09T02:35:09.535Z,37.85
2023-05-09T02:36:15.002Z,37.86
2023-05-09T02:37:19.689Z,37.90
2023-05-09T02:38:23.717Z,37.84
2023-05-09T02:39:27.470Z,37.90
2023-05-09T02:40:31.831Z,37.94
2023-05-09T02:41:35.523Z,37.95
2023-05-09T02:42:39.257Z,37.99
2023-05-09T02:43:43.194Z,38.05
2023-05-09T02:44:47.174Z,37.81
2023-05-09T02:45:52.708Z,38.02
2023-05-09T02:46:56.461Z,38.11
2023-05-09T02:48:00.344Z,38.14
2023-05-09T02:49:04.206Z,38.17
2023-05-09T02:50:09.107Z,38.21
2023-05-09T02:51:12.742Z,38.16
2023-05-09T02:52:16.355Z,38.13
2023-05-09T02:53:20.074Z,38.24
2023-05-09T02:54:23.780Z,38.11
2023-05-09T02:55:27.692Z,38.27
2023-05-09T02:56:31.439Z,38.30
2023-05-09T02:57:35.085Z,38.09
2023-05-09T02:58:38.915Z,38.25
2023-05-09T02:59:42.509Z,38.28
2023-05-09T03:00:46.196Z,38.25
2023-05-09T03:01:51.557Z,38.28
2023-05-09T03:02:55.284Z,38.21
2023-05-09T03:03:59.093Z,38.25
2023-05-09T03:05:02.961Z,38.29
2023-05-09T03:06:06.903Z,38.23
2023-05-09T03:07:10.582Z,38.26
2023-05-09T03:08:14.279Z,38.29
2023-05-09T03:09:17.976Z,38.34
2023-05-09T03:10:21.696Z,38.35
2023-05-09T03:11:25.469Z,38.38
2023-05-09T03:12:29.078Z,38.46
2023-05-09T03:13:32.810Z,38.52
2023-05-09T03:14:36.482Z,38.47
2023-05-09T03:15:40.181Z,38.50
2023-05-09T03:16:43.870Z,38.42
2023-05-09T03:17:49.288Z,38.29
2023-05-09T03:18:52.985Z,38.40
2023-05-09T03:19:56.668Z,38.44
2023-05-09T03:21:00.375Z,38.64
2023-05-09T03:22:04.167Z,38.73
2023-05-09T03:23:07.960Z,38.75
2023-05-09T03:24:11.983Z,38.64
2023-05-09T03:25:15.888Z,38.63
2023-05-09T03:26:19.667Z,38.76
2023-05-09T03:27:23.274Z,38.76
2023-05-09T03:28:26.923Z,38.86
2023-05-09T03:29:30.558Z,38.99
2023-05-09T03:30:34.219Z,39.07
2023-05-09T03:31:37.925Z,39.02
2023-05-09T03:32:41.734Z,39.13
2023-05-09T03:33:47.024Z,39.10
2023-05-09T03:34:50.689Z,39.16
2023-05-09T03:35:54.288Z,39.26
2023-05-09T03:36:58.015Z,39.21
2023-05-09T03:38:01.760Z,39.25
2023-05-09T03:39:05.415Z,39.33
2023-05-09T03:40:10.277Z,39.37
2023-05-09T03:41:17.443Z,39.20
2023-05-09T03:42:21.097Z,39.41
2023-05-09T03:43:24.776Z,39.12
2023-05-09T03:44:28.575Z,39.16
2023-05-09T03:45:32.235Z,39.40
2023-05-09T03:46:38.133Z,39.53
2023-05-09T03:47:41.918Z,39.56
2023-05-09T03:48:47.479Z,39.61
2023-05-09T03:49:51.133Z,39.65
2023-05-09T03:50:54.839Z,39.72
2023-05-09T03:51:58.524Z,39.74
2023-05-09T03:53:02.229Z,39.75
2023-05-09T03:54:06.102Z,39.74
2023-05-09T03:55:10.814Z,39.82
2023-05-09T03:56:14.723Z,39.71
2023-05-09T03:57:18.331Z,39.86
2023-05-09T03:58:22.045Z,39.64
2023-05-09T03:59:25.815Z,39.70
2023-05-09T04:00:29.598Z,39.80
2023-05-09T04:01:33.353Z,39.89
2023-05-09T04:02:37.263Z,39.85
2023-05-09T04:03:41.103Z,39.82
2023-05-09T04:04:46.777Z,39.96
2023-05-09T04:05:50.525Z,40.02
2023-05-09T04:06:54.222Z,40.09
2023-05-09T04:07:58.071Z,39.97
2023-05-09T04:09:01.888Z,40.17
2023-05-09T04:10:06.056Z,40.12
2023-05-09T04:11:09.656Z,40.16
2023-05-09T04:12:13.373Z,40.27
2023-05-09T04:13:17.353Z,39.92
2023-05-09T04:14:21.213Z,40.18
2023-05-09T04:15:25.022Z,40.28
2023-05-09T04:16:28.843Z,40.37
2023-05-09T04:17:32.557Z,40.44
2023-05-09T04:18:36.474Z,40.21
2023-05-09T04:19:40.223Z,40.39
2023-05-09T04:20:45.574Z,40.29
2023-05-09T04:21:49.303Z,40.33
2023-05-09T04:22:52.926Z,40.40
2023-05-09T04:23:56.614Z,40.54
2023-05-09T04:25:00.305Z,40.68
2023-05-09T04:26:03.990Z,40.67
2023-05-09T04:27:07.632Z,40.81
2023-05-09T04:28:11.480Z,40.74
2023-05-09T04:29:15.187Z,40.62
2023-05-09T04:30:19.172Z,40.79
2023-05-09T04:31:22.942Z,40.86
2023-05-09T04:32:26.774Z,40.57
2023-05-09T04:33:30.588Z,40.44
2023-05-09T04:34:34.257Z,40.61
2023-05-09T04:35:38.872Z,40.79
2023-05-09T04:36:44.373Z,40.92
2023-05-09T04:37:48.052Z,40.98
2023-05-09T04:38:51.657Z,41.09
2023-05-09T04:39:55.289Z,41.08
2023-05-09T04:40:58.944Z,41.03
2023-05-09T04:42:02.708Z,40.86
2023-05-09T04:43:06.500Z,40.85
2023-05-09T04:44:10.172Z,40.81
2023-05-09T04:45:13.983Z,40.69
2023-05-09T04:46:17.872Z,40.67
2023-05-09T04:47:21.599Z,40.68
2023-05-09T04:48:25.231Z,40.70
2023-05-09T04:49:28.834Z,40.64
2023-05-09T04:50:32.557Z,40.52
2023-05-09T04:51:36.276Z,40.54
2023-05-09T04:52:41.643Z,40.47
2023-05-09T04:53:45.332Z,40.50
2023-05-09T04:54:49.033Z,40.45
2023-05-09T04:55:52.675Z,40.36
2023-05-09T04:57:03.162Z,40.28
2023-05-09T04:58:11.072Z,39.90
2023-05-09T04:59:14.761Z,40.00
2023-05-09T05:00:18.726Z,39.92
2023-05-09T05:01:22.391Z,39.78
2023-05-09T05:02:26.137Z,39.69
2023-05-09T05:03:29.959Z,39.79
2023-05-09T05:04:33.737Z,39.93
2023-05-09T05:05:37.897Z,40.04
2023-05-09T05:06:41.630Z,40.00
2023-05-09T05:07:46.930Z,40.21
2023-05-09T05:08:50.629Z,40.09
2023-05-09T05:09:54.272Z,40.34
2023-05-09T05:10:58.340Z,40.45
2023-05-09T05:12:03.637Z,40.49
2023-05-09T05:13:08.086Z,40.25
2023-05-09T05:14:11.838Z,40.38
2023-05-09T05:15:16.006Z,40.53
2023-05-09T05:16:19.877Z,40.57
2023-05-09T05:17:23.608Z,40.57
2023-05-09T05:18:27.358Z,40.61
2023-05-09T05:19:31.092Z,40.75
2023-05-09T05:20:35.490Z,40.75
2023-05-09T05:21:39.142Z,40.78
2023-05-09T05:22:42.833Z,40.81
2023-05-09T05:23:48.183Z,40.72
2023-05-09T05:24:51.913Z,40.76
2023-05-09T05:25:55.608Z,40.82
2023-05-09T05:26:59.260Z,40.97
2023-05-09T05:28:02.957Z,40.97
2023-05-09T05:29:06.702Z,41.13
2023-05-09T05:30:11.285Z,41.03
2023-05-09T05:31:14.904Z,41.03
2023-05-09T05:32:18.643Z,41.27
2023-05-09T05:33:22.281Z,41.20
2023-05-09T05:34:26.029Z,41.09
2023-05-09T05:35:29.724Z,40.99
2023-05-09T05:36:33.432Z,41.19
2023-05-09T05:37:37.101Z,41.25
2023-05-09T05:38:40.900Z,41.43
2023-05-09T05:39:46.399Z,41.44
2023-05-09T05:40:50.100Z,41.20
2023-05-09T05:41:53.749Z,41.46
2023-05-09T05:42:57.363Z,41.53
2023-05-09T05:44:01.032Z,41.64
2023-05-09T05:45:04.874Z,41.48
2023-05-09T05:46:08.696Z,41.55
2023-05-09T05:47:12.350Z,41.32
2023-05-09T05:48:16.426Z,41.50
2023-05-09T05:49:20.069Z,41.77
2023-05-09T05:50:23.818Z,41.87
2023-05-09T05:51:27.587Z,41.82
2023-05-09T05:52:31.731Z,41.91
2023-05-09T05:53:35.373Z,42.00
2023-05-09T05:54:39.479Z,41.75
2023-05-09T05:55:44.804Z,41.67
2023-05-09T05:56:48.572Z,41.67
2023-05-09T05:57:52.232Z,41.49
2023-05-09T05:58:55.871Z,41.48
2023-05-09T05:59:59.541Z,41.25
2023-05-09T06:01:03.234Z,41.53
2023-05-09T06:02:07.582Z,41.71
2023-05-09T06:03:14.774Z,41.81
2023-05-09T06:04:18.707Z,41.83
2023-05-09T06:05:22.547Z,41.88
2023-05-09T06:06:27.726Z,41.93
2023-05-09T06:07:31.484Z,41.84
2023-05-09T06:08:35.102Z,41.81
2023-05-09T06:09:38.850Z,41.55
2023-05-09T06:10:44.415Z,41.46
2023-05-09T06:11:48.100Z,41.24
2023-05-09T06:12:51.964Z,41.48
2023-05-09T06:13:55.836Z,41.62
2023-05-09T06:14:59.468Z,41.73
2023-05-09T06:16:15.043Z,41.83
2023-05-09T06:17:22.775Z,41.79
2023-05-09T06:18:33.432Z,41.73
2023-05-09T20:03:03.192Z,34.57
2023-05-09T20:04:06.921Z,34.56
2023-05-09T20:05:11.074Z,34.60
2023-05-09T20:06:14.732Z,34.62
2023-05-09T20:07:18.842Z,34.65
2023-05-09T20:08:22.699Z,34.68
2023-05-09T20:09:26.438Z,34.68
2023-05-09T20:10:30.087Z,34.72
2023-05-09T20:11:33.793Z,34.71
2023-05-09T20:12:37.492Z,34.68
2023-05-09T20:13:41.240Z,34.59
2023-05-09T20:14:45.180Z,34.66
2023-05-09T20:15:49.185Z,34.67
2023-05-09T20:16:52.872Z,34.79
2023-05-09T20:17:56.560Z,34.80
2023-05-09T20:19:01.891Z,34.77
2023-05-09T20:20:06.184Z,34.78
2023-05-09T20:21:09.901Z,34.81
2023-05-09T20:22:13.582Z,34.78
2023-05-09T20:23:17.280Z,34.76
2023-05-09T20:24:21.193Z,34.75
2023-05-09T20:25:25.091Z,34.75
2023-05-09T20:26:28.746Z,34.79
2023-05-09T20:27:32.397Z,34.80
2023-05-09T20:28:36.084Z,34.77
2023-05-09T20:29:39.768Z,34.84
2023-05-09T20:30:43.428Z,34.77
2023-05-09T20:31:47.158Z,34.83
2023-05-09T20:32:51.062Z,34.85
2023-05-09T20:33:54.785Z,34.85
2023-05-09T20:35:00.104Z,34.84
2023-05-09T20:36:03.728Z,34.86
2023-05-09T20:37:07.490Z,34.86
2023-05-09T20:38:11.470Z,34.89
2023-05-09T20:39:15.166Z,34.91
2023-05-09T20:40:19.042Z,34.88
2023-05-09T20:41:23.062Z,34.79
2023-05-09T20:42:26.717Z,34.84
2023-05-09T20:43:30.536Z,34.85
2023-05-09T20:44:34.548Z,34.85
2023-05-09T20:45:38.299Z,34.88
2023-05-09T20:46:42.107Z,34.92
2023-05-09T20:47:45.849Z,34.92
2023-05-09T20:48:49.571Z,34.93
2023-05-09T20:49:53.319Z,34.92
2023-05-09T20:50:58.628Z,34.88
2023-05-09T20:52:02.320Z,34.86
2023-05-09T20:53:05.979Z,34.92
2023-05-09T20:54:09.819Z,34.89
2023-05-09T20:55:13.678Z,34.86
2023-05-09T20:56:17.475Z,34.79
2023-05-09T20:57:21.213Z,34.91
2023-05-09T20:58:24.822Z,34.92
2023-05-09T20:59:28.467Z,34.92
2023-05-09T21:00:32.291Z,34.91
2023-05-09T21:01:35.907Z,34.93
2023-05-09T21:02:39.743Z,34.92
2023-05-09T21:03:43.513Z,34.94
2023-05-09T21:04:47.177Z,34.97
2023-05-09T21:05:50.938Z,34.98
2023-05-09T21:06:56.240Z,34.99
2023-05-09T21:07:59.885Z,35.01
2023-05-09T21:09:03.907Z,34.98
2023-05-09T21:10:08.940Z,34.99
2023-05-09T21:11:12.656Z,34.98
2023-05-09T21:12:16.492Z,34.99
2023-05-09T21:13:20.356Z,34.99
2023-05-09T21:14:24.042Z,34.99
2023-05-09T21:15:27.783Z,34.88
2023-05-09T21:16:31.536Z,34.87
2023-05-09T21:17:35.275Z,34.89
2023-05-09T21:18:39.035Z,34.79
2023-05-09T21:19:42.718Z,34.87
2023-05-09T21:20:46.427Z,34.88
2023-05-09T21:21:50.097Z,34.71
2023-05-09T21:22:55.430Z,34.87
2023-05-09T21:23:59.159Z,34.82
2023-05-09T21:25:02.784Z,34.89
2023-05-09T21:26:06.692Z,34.87
2023-05-09T21:27:10.460Z,34.84
2023-05-09T21:28:14.073Z,34.90
2023-05-09T21:29:17.834Z,34.77
2023-05-09T21:30:21.624Z,34.93
2023-05-09T21:31:25.525Z,34.92
2023-05-09T21:32:29.157Z,34.89
2023-05-09T21:33:32.840Z,34.89
2023-05-09T21:34:36.560Z,34.91
2023-05-09T21:35:40.184Z,34.91
2023-05-09T21:36:43.888Z,34.94
2023-05-09T21:37:47.636Z,34.94
2023-05-09T21:38:52.965Z,34.95
2023-05-09T21:39:56.603Z,34.97
2023-05-09T21:41:00.198Z,34.95
2023-05-09T21:42:03.892Z,34.94
2023-05-09T21:43:07.489Z,34.93
2023-05-09T21:44:11.100Z,34.89
2023-05-09T21:45:14.966Z,34.86
2023-05-09T21:46:18.632Z,34.95
2023-05-09T21:47:22.524Z,34.94
2023-05-09T21:48:26.410Z,34.91
2023-05-09T21:49:30.148Z,34.94
2023-05-09T21:50:33.954Z,34.87
2023-05-09T21:51:37.680Z,34.88
2023-05-09T21:52:41.446Z,34.84
2023-05-09T21:53:45.183Z,34.84
2023-05-09T21:54:50.598Z,34.83
2023-05-09T21:55:54.238Z,34.84
2023-05-09T21:56:57.890Z,34.83
2023-05-09T21:58:01.622Z,34.84
2023-05-09T21:59:05.431Z,34.76
2023-05-09T22:00:10.477Z,34.76
2023-05-09T22:01:14.252Z,34.62
2023-05-09T22:02:18.224Z,34.62
2023-05-09T22:03:22.071Z,34.77
2023-05-09T22:04:25.818Z,34.80
2023-05-09T22:05:29.558Z,34.81
2023-05-09T22:06:33.351Z,34.84
2023-05-09T22:07:37.141Z,34.82
2023-05-09T22:08:40.842Z,34.81
2023-05-09T22:09:44.552Z,34.80
2023-05-09T22:10:49.808Z,34.80
2023-05-09T22:11:53.947Z,34.81
2023-05-09T22:12:57.707Z,34.81
2023-05-09T22:14:01.551Z,34.79
2023-05-09T22:15:05.938Z,34.81
2023-05-09T22:16:09.716Z,34.76
2023-05-09T22:17:13.384Z,34.76
2023-05-09T22:18:17.062Z,34.84
2023-05-09T22:19:20.704Z,34.86
2023-05-09T22:20:24.644Z,34.87
2023-05-09T22:21:28.256Z,34.75
2023-05-09T22:22:31.983Z,34.87
2023-05-09T22:23:35.752Z,34.87
2023-05-09T22:24:39.994Z,34.78
2023-05-09T22:25:43.612Z,34.81
2023-05-09T22:26:48.920Z,34.81
2023-05-09T22:27:52.786Z,34.78
2023-05-09T22:28:56.475Z,34.77
2023-05-09T22:30:00.188Z,34.73
2023-05-09T22:31:05.632Z,34.78
2023-05-09T22:32:09.356Z,34.77
2023-05-09T22:33:13.062Z,34.76
2023-05-09T22:34:16.926Z,34.76
2023-05-09T22:35:20.627Z,34.77
2023-05-09T22:36:24.326Z,34.75
2023-05-09T22:37:28.042Z,34.75
2023-05-09T22:38:31.719Z,34.79
2023-05-09T22:39:35.497Z,34.77
2023-05-09T22:40:39.264Z,34.84
2023-05-09T22:41:42.917Z,34.85
2023-05-09T22:42:48.238Z,34.87
2023-05-09T22:43:51.925Z,34.84
2023-05-09T22:44:55.719Z,34.78
2023-05-09T22:45:59.475Z,34.75
2023-05-09T22:47:03.143Z,34.75
2023-05-09T22:48:07.387Z,34.77
2023-05-09T22:49:11.142Z,34.77
2023-05-09T22:50:15.066Z,34.77
2023-05-09T22:51:19.227Z,34.76
2023-05-09T22:52:22.926Z,34.73
2023-05-09T22:53:26.633Z,34.71
2023-05-09T22:54:30.348Z,34.73
2023-05-09T22:55:34.053Z,34.78
2023-05-09T22:56:37.665Z,34.76
2023-05-09T22:57:42.010Z,34.76
2023-05-09T22:58:47.383Z,34.79
2023-05-09T22:59:51.236Z,34.82
2023-05-09T23:00:55.032Z,34.81
2023-05-09T23:01:59.397Z,34.80
2023-05-09T23:03:03.568Z,34.80
2023-05-09T23:04:07.320Z,34.79
2023-05-09T23:05:11.242Z,34.82
2023-05-09T23:06:14.886Z,34.83
2023-05-09T23:07:18.623Z,34.80
2023-05-09T23:08:22.209Z,34.83
2023-05-09T23:09:25.830Z,34.84
2023-05-09T23:10:29.531Z,34.85
2023-05-09T23:11:33.227Z,34.87
2023-05-09T23:12:36.855Z,34.88
2023-05-09T23:13:40.475Z,34.73
2023-05-09T23:14:45.763Z,34.85
2023-05-09T23:15:49.518Z,34.88
2023-05-09T23:16:53.219Z,34.92
2023-05-09T23:17:56.900Z,34.84
2023-05-09T23:19:00.664Z,34.86
2023-05-09T23:20:04.488Z,34.87
2023-05-09T23:21:08.241Z,34.88
2023-05-09T23:22:11.957Z,34.79
2023-05-09T23:23:15.687Z,34.82
2023-05-09T23:24:19.368Z,34.87
2023-05-09T23:25:23.234Z,34.84
2023-05-09T23:26:26.939Z,34.82
2023-05-09T23:27:30.696Z,34.75
2023-05-09T23:28:34.416Z,34.72
2023-05-09T23:29:38.051Z,34.80
2023-05-09T23:30:43.373Z,34.88
2023-05-09T23:31:47.171Z,34.81
2023-05-09T23:32:51.008Z,34.83
2023-05-09T23:33:54.636Z,34.77
2023-05-09T23:34:58.253Z,34.88
2023-05-09T23:36:01.888Z,34.91
2023-05-09T23:37:05.929Z,34.94
2023-05-09T23:38:09.708Z,34.97
2023-05-09T23:39:13.360Z,34.89
2023-05-09T23:40:17.236Z,34.97
2023-05-09T23:41:21.335Z,34.97
2023-05-09T23:42:24.952Z,35.00
2023-05-09T23:43:28.839Z,34.98
2023-05-09T23:44:32.551Z,35.05
2023-05-09T23:45:36.184Z,35.05
2023-05-09T23:46:41.512Z,35.06
2023-05-09T23:47:45.346Z,34.97
2023-05-09T23:48:49.070Z,35.09
2023-05-09T23:49:52.756Z,35.11
2023-05-09T23:50:56.493Z,35.09
2023-05-09T23:52:00.193Z,35.11
2023-05-09T23:53:03.831Z,35.11
2023-05-09T23:54:07.697Z,35.07
2023-05-09T23:55:11.601Z,35.14
2023-05-09T23:56:15.299Z,35.11
2023-05-09T23:57:19.106Z,35.10
2023-05-09T23:58:22.816Z,35.10
2023-05-09T23:59:26.539Z,35.04
